ADDS METAR Data INFO
IDs: Format: Raw Decoded Include TAF

Data at: 1506 UTC 29 May 2017

METAR for:KVCT (Victoria Rgnl, TX, US)
Text:KVCT 291451Z 16012KT 8SM SCT012 BKN047 OVC110 23/22 A3003 RMK AO2 PK WND 11027/1404 LTG DSNT N AND NW RAE51 SLP167 P0001 60019 T02330217 53018
Temperature: 23.3°C ( 74°F)
Dewpoint: 21.7°C ( 71°F) [RH = 91%]
Pressure (altimeter):30.03 inches Hg (1017.0 mb) [Sea level pressure: 1016.7 mb]
Winds:from the SSE (160 degrees) at 14 MPH (12 knots; 6.2 m/s)
Visibility: 8 sm ( 13 km)
Ceiling:4700 feet AGL
Clouds: scattered clouds at 1200 feet AGL, broken clouds at 4700 feet AGL, overcast cloud deck at 11000 feet AGL


Page loaded:  15:06 UTC  |   08:06 AM Pacific  |   09:06 AM Mountain  |   10:06 AM Central  |   11:06 AM Eastern

 

ADVISORIES

FORECASTS

FORECASTS

OBSERVATIONS

USER TOOLS

ABOUT US